sensor_id;sensor_type;location;lat;lon;timestamp;pressure;altitude;pressure_sealevel;temperature;humidity
52797;BME280;38666;43.348;12.584;2023-02-16T06:54:02;96976.75;;;3.26;81.60
52797;BME280;38666;43.348;12.584;2023-02-16T06:56:27;96978.16;;;3.50;82.04
52797;BME280;38666;43.348;12.584;2023-02-16T06:58:53;96979.66;;;3.78;82.60
52797;BME280;38666;43.348;12.584;2023-02-16T07:01:18;96985.31;;;4.03;82.34
52797;BME280;38666;43.348;12.584;2023-02-16T07:03:48;96996.06;;;4.20;80.33
52797;BME280;38666;43.348;12.584;2023-02-16T07:06:14;96974.19;;;4.34;78.43
52797;BME280;38666;43.348;12.584;2023-02-16T07:08:40;96986.66;;;4.57;76.18
52797;BME280;38666;43.348;12.584;2023-02-16T07:11:05;96978.47;;;4.66;73.33
52797;BME280;38666;43.348;12.584;2023-02-16T07:13:31;96981.78;;;4.72;74.69
52797;BME280;38666;43.348;12.584;2023-02-16T07:16:04;96989.31;;;4.87;73.19
52797;BME280;38666;43.348;12.584;2023-02-16T07:18:30;96989.03;;;5.01;71.79
52797;BME280;38666;43.348;12.584;2023-02-16T07:20:56;96988.50;;;5.29;69.47
52797;BME280;38666;43.348;12.584;2023-02-16T07:23:21;96990.22;;;5.34;68.63
52797;BME280;38666;43.348;12.584;2023-02-16T07:25:47;96990.41;;;5.63;68.96
52797;BME280;38666;43.348;12.584;2023-02-16T07:28:12;96988.63;;;6.26;66.28
52797;BME280;38666;43.348;12.584;2023-02-16T07:30:38;96988.56;;;6.76;64.88
52797;BME280;38666;43.348;12.584;2023-02-16T07:33:03;96994.88;;;6.93;61.85
52797;BME280;38666;43.348;12.584;2023-02-16T07:35:31;96992.06;;;7.18;61.75
52797;BME280;38666;43.348;12.584;2023-02-16T07:37:57;96995.84;;;7.70;60.56
52797;BME280;38666;43.348;12.584;2023-02-16T07:40:23;96994.06;;;7.78;57.40
52797;BME280;38666;43.348;12.584;2023-02-16T07:42:48;96996.38;;;8.09;57.02
52797;BME280;38666;43.348;12.584;2023-02-16T07:45:14;97003.06;;;8.27;56.63
52797;BME280;38666;43.348;12.584;2023-02-16T07:47:39;96997.78;;;8.51;54.21
52797;BME280;38666;43.348;12.584;2023-02-16T07:50:05;97001.66;;;9.22;49.69
52797;BME280;38666;43.348;12.584;2023-02-16T07:52:31;96999.97;;;9.57;49.25
52797;BME280;38666;43.348;12.584;2023-02-16T07:54:57;96999.91;;;9.96;47.83
52797;BME280;38666;43.348;12.584;2023-02-16T07:57:24;96996.09;;;10.24;47.96
52797;BME280;38666;43.348;12.584;2023-02-16T07:59:51;97001.47;;;10.68;45.89
52797;BME280;38666;43.348;12.584;2023-02-16T08:02:17;97007.75;;;10.72;45.60
52797;BME280;38666;43.348;12.584;2023-02-16T08:04:44;97003.88;;;11.00;45.27
52797;BME280;38666;43.348;12.584;2023-02-16T08:07:14;96999.38;;;11.50;43.76
52797;BME280;38666;43.348;12.584;2023-02-16T08:09:40;97007.66;;;11.57;43.22
52797;BME280;38666;43.348;12.584;2023-02-16T08:12:09;97004.34;;;11.40;43.41
52797;BME280;38666;43.348;12.584;2023-02-16T08:14:36;96998.94;;;12.24;41.99
52797;BME280;38666;43.348;12.584;2023-02-16T08:17:02;97002.25;;;12.02;42.18
52797;BME280;38666;43.348;12.584;2023-02-16T08:19:28;97013.47;;;11.90;42.08
52797;BME280;38666;43.348;12.584;2023-02-16T08:21:54;97018.53;;;11.50;42.67
52797;BME280;38666;43.348;12.584;2023-02-16T08:24:20;97010.56;;;11.37;43.38
52797;BME280;38666;43.348;12.584;2023-02-16T08:26:47;97015.78;;;11.50;42.76
52797;BME280;38666;43.348;12.584;2023-02-16T08:29:15;97020.44;;;12.22;41.69
52797;BME280;38666;43.348;12.584;2023-02-16T08:31:43;97020.91;;;13.58;39.71
52797;BME280;38666;43.348;12.584;2023-02-16T08:34:13;97015.44;;;13.73;39.28
52797;BME280;38666;43.348;12.584;2023-02-16T08:36:40;97021.81;;;14.28;38.94
52797;BME280;38666;43.348;12.584;2023-02-16T08:39:11;97010.00;;;14.97;37.37
52797;BME280;38666;43.348;12.584;2023-02-16T08:41:37;97012.81;;;15.80;36.27
52797;BME280;38666;43.348;12.584;2023-02-16T08:44:05;97014.47;;;15.66;36.08
52797;BME280;38666;43.348;12.584;2023-02-16T08:46:32;97017.81;;;15.17;36.65
52797;BME280;38666;43.348;12.584;2023-02-16T08:48:59;97021.78;;;14.98;37.26
52797;BME280;38666;43.348;12.584;2023-02-16T08:51:27;97023.75;;;15.08;36.52
52797;BME280;38666;43.348;12.584;2023-02-16T08:53:54;97027.47;;;15.62;36.57
52797;BME280;38666;43.348;12.584;2023-02-16T08:56:21;97016.88;;;16.74;34.92
52797;BME280;38666;43.348;12.584;2023-02-16T08:58:47;97026.63;;;16.86;34.87
52797;BME280;38666;43.348;12.584;2023-02-16T09:01:13;97028.13;;;17.33;33.96
52797;BME280;38666;43.348;12.584;2023-02-16T09:03:41;97027.88;;;16.78;34.48
52797;BME280;38666;43.348;12.584;2023-02-16T09:06:08;97031.13;;;16.65;35.05
52797;BME280;38666;43.348;12.584;2023-02-16T09:08:35;97036.88;;;16.85;34.89
52797;BME280;38666;43.348;12.584;2023-02-16T09:11:06;97034.75;;;17.01;34.27
52797;BME280;38666;43.348;12.584;2023-02-16T09:13:35;97034.59;;;17.19;34.06
52797;BME280;38666;43.348;12.584;2023-02-16T09:16:10;97044.41;;;17.24;34.14
52797;BME280;38666;43.348;12.584;2023-02-16T09:18:37;97044.28;;;17.35;34.19
52797;BME280;38666;43.348;12.584;2023-02-16T09:21:10;97049.03;;;18.28;32.96
52797;BME280;38666;43.348;12.584;2023-02-16T09:23:37;97049.66;;;19.72;31.03
52797;BME280;38666;43.348;12.584;2023-02-16T09:26:04;97043.06;;;19.25;31.44
52797;BME280;38666;43.348;12.584;2023-02-16T09:28:35;97047.50;;;17.64;33.29
52797;BME280;38666;43.348;12.584;2023-02-16T09:31:11;97048.59;;;18.29;33.16
52797;BME280;38666;43.348;12.584;2023-02-16T09:33:38;97055.72;;;19.47;31.76
52797;BME280;38666;43.348;12.584;2023-02-16T09:36:09;97047.22;;;19.95;30.77
52797;BME280;38666;43.348;12.584;2023-02-16T09:38:34;97051.88;;;18.48;32.30
52797;BME280;38666;43.348;12.584;2023-02-16T09:43:48;97059.25;;;19.27;30.93
52797;BME280;38666;43.348;12.584;2023-02-16T09:46:19;97059.53;;;16.09;35.78
52797;BME280;38666;43.348;12.584;2023-02-16T09:48:48;97059.81;;;16.79;35.48
52797;BME280;38666;43.348;12.584;2023-02-16T09:51:33;97064.84;;;17.96;34.06
52797;BME280;38666;43.348;12.584;2023-02-16T09:54:32;97062.09;;;19.84;30.86
52797;BME280;38666;43.348;12.584;2023-02-16T10:10:18;97067.91;;;19.90;30.64
52797;BME280;38666;43.348;12.584;2023-02-16T10:12:55;97068.22;;;19.11;32.22
52797;BME280;38666;43.348;12.584;2023-02-16T10:15:25;97073.84;;;18.83;33.43
52797;BME280;38666;43.348;12.584;2023-02-16T10:18:05;97072.97;;;18.38;34.22
52797;BME280;38666;43.348;12.584;2023-02-16T10:20:35;97062.78;;;19.89;32.80
52797;BME280;38666;43.348;12.584;2023-02-16T10:26:16;97070.75;;;19.66;33.61
52797;BME280;38666;43.348;12.584;2023-02-16T10:28:48;97060.66;;;17.84;36.51
52797;BME280;38666;43.348;12.584;2023-02-16T10:42:47;97057.16;;;23.48;28.79
52797;BME280;38666;43.348;12.584;2023-02-16T10:47:49;97057.41;;;21.91;31.01
52797;BME280;38666;43.348;12.584;2023-02-16T10:50:36;97047.06;;;22.05;30.62
52797;BME280;38666;43.348;12.584;2023-02-16T10:53:13;97044.50;;;21.84;30.99
52797;BME280;38666;43.348;12.584;2023-02-16T10:55:39;97045.13;;;21.03;32.32
52797;BME280;38666;43.348;12.584;2023-02-16T10:58:15;97048.63;;;22.06;30.75
52797;BME280;38666;43.348;12.584;2023-02-16T11:00:55;97032.59;;;22.10;30.42
52797;BME280;38666;43.348;12.584;2023-02-16T11:03:24;97042.59;;;21.51;31.12
52797;BME280;38666;43.348;12.584;2023-02-16T11:05:53;97042.75;;;21.01;31.55
52797;BME280;38666;43.348;12.584;2023-02-16T11:08:19;97038.09;;;21.28;30.96
52797;BME280;38666;43.348;12.584;2023-02-16T11:10:50;97045.16;;;19.79;33.13
52797;BME280;38666;43.348;12.584;2023-02-16T11:13:30;97034.88;;;19.79;34.09
52797;BME280;38666;43.348;12.584;2023-02-16T11:16:02;97050.75;;;18.70;35.51
52797;BME280;38666;43.348;12.584;2023-02-16T11:18:32;97050.50;;;17.74;37.59
52797;BME280;38666;43.348;12.584;2023-02-16T11:20:59;97042.22;;;19.49;34.44
52797;BME280;38666;43.348;12.584;2023-02-16T11:23:30;97044.34;;;19.61;34.21
52797;BME280;38666;43.348;12.584;2023-02-16T11:28:41;97043.44;;;17.41;38.33
52797;BME280;38666;43.348;12.584;2023-02-16T11:34:00;97047.13;;;18.97;35.43
52797;BME280;38666;43.348;12.584;2023-02-16T11:36:33;97048.56;;;18.81;35.73
52797;BME280;38666;43.348;12.584;2023-02-16T11:39:07;97041.06;;;20.24;33.60
52797;BME280;38666;43.348;12.584;2023-02-16T11:42:06;97039.59;;;19.42;35.06
52797;BME280;38666;43.348;12.584;2023-02-16T11:44:38;97034.31;;;21.22;31.35
52797;BME280;38666;43.348;12.584;2023-02-16T11:49:46;97025.97;;;20.59;32.25
52797;BME280;38666;43.348;12.584;2023-02-16T11:52:26;97020.50;;;20.72;32.55
52797;BME280;38666;43.348;12.584;2023-02-16T11:54:58;97033.06;;;19.52;33.66
52797;BME280;38666;43.348;12.584;2023-02-16T11:57:26;97027.63;;;20.39;32.78
52797;BME280;38666;43.348;12.584;2023-02-16T11:59:53;97030.63;;;18.89;35.52
52797;BME280;38666;43.348;12.584;2023-02-16T12:02:48;97021.03;;;21.98;31.07
52797;BME280;38666;43.348;12.584;2023-02-16T12:05:29;97021.09;;;24.58;26.87
52797;BME280;38666;43.348;12.584;2023-02-16T12:16:47;97013.53;;;20.97;32.45
52797;BME280;38666;43.348;12.584;2023-02-16T12:19:38;97011.28;;;21.21;30.55
52797;BME280;38666;43.348;12.584;2023-02-16T12:22:23;97016.50;;;20.06;32.18
52797;BME280;38666;43.348;12.584;2023-02-16T12:27:55;97012.84;;;19.11;33.25
52797;BME280;38666;43.348;12.584;2023-02-16T12:33:44;96995.34;;;20.62;32.53
52797;BME280;38666;43.348;12.584;2023-02-16T12:36:21;96999.13;;;20.39;32.02
52797;BME280;38666;43.348;12.584;2023-02-16T12:44:47;96985.00;;;20.96;30.57
52797;BME280;38666;43.348;12.584;2023-02-16T12:47:24;96979.56;;;20.76;29.94
52797;BME280;38666;43.348;12.584;2023-02-16T12:52:45;96978.22;;;20.51;31.12
52797;BME280;38666;43.348;12.584;2023-02-16T12:55:19;96984.41;;;18.66;32.90
52797;BME280;38666;43.348;12.584;2023-02-16T12:58:16;96980.03;;;19.70;32.58
52797;BME280;38666;43.348;12.584;2023-02-16T13:00:46;96982.13;;;19.05;33.41
52797;BME280;38666;43.348;12.584;2023-02-16T13:08:59;96973.56;;;19.77;31.84
52797;BME280;38666;43.348;12.584;2023-02-16T13:11:33;96964.91;;;21.05;30.18
52797;BME280;38666;43.348;12.584;2023-02-16T13:14:03;96965.59;;;19.22;32.48
52797;BME280;38666;43.348;12.584;2023-02-16T13:16:44;96967.84;;;17.28;36.12
52797;BME280;38666;43.348;12.584;2023-02-16T13:19:12;96969.56;;;18.56;34.24
52797;BME280;38666;43.348;12.584;2023-02-16T13:22:05;96963.09;;;18.43;34.33
52797;BME280;38666;43.348;12.584;2023-02-16T13:39:08;96943.03;;;20.31;31.60
52797;BME280;38666;43.348;12.584;2023-02-16T13:44:23;96935.78;;;20.67;30.46
52797;BME280;38666;43.348;12.584;2023-02-16T13:46:51;96943.09;;;21.20;29.51
52797;BME280;38666;43.348;12.584;2023-02-16T13:49:38;96935.88;;;20.63;30.84
52797;BME280;38666;43.348;12.584;2023-02-16T13:52:09;96937.91;;;19.96;31.82
52797;BME280;38666;43.348;12.584;2023-02-16T13:54:40;96945.44;;;19.01;33.52
52797;BME280;38666;43.348;12.584;2023-02-16T14:05:34;96923.38;;;24.77;25.27
52797;BME280;38666;43.348;12.584;2023-02-16T14:08:24;96935.03;;;22.66;27.70
52797;BME280;38666;43.348;12.584;2023-02-16T14:13:16;96930.22;;;23.88;25.84
52797;BME280;38666;43.348;12.584;2023-02-16T14:15:52;96939.16;;;21.73;28.60
52797;BME280;38666;43.348;12.584;2023-02-16T14:21:04;96932.75;;;19.24;32.73
52797;BME280;38666;43.348;12.584;2023-02-16T14:23:30;96929.75;;;19.35;33.29
52797;BME280;38666;43.348;12.584;2023-02-16T14:26:06;96930.22;;;19.09;33.51
52797;BME280;38666;43.348;12.584;2023-02-16T14:31:02;96935.56;;;21.34;30.44
52797;BME280;38666;43.348;12.584;2023-02-16T14:33:41;96939.06;;;21.90;29.35
52797;BME280;38666;43.348;12.584;2023-02-16T15:00:56;96937.69;;;21.29;31.24
52797;BME280;38666;43.348;12.584;2023-02-16T15:03:44;96946.28;;;20.59;32.49
52797;BME280;38666;43.348;12.584;2023-02-16T15:06:19;96938.63;;;20.17;32.77
52797;BME280;38666;43.348;12.584;2023-02-16T15:08:51;96939.53;;;18.99;35.39
52797;BME280;38666;43.348;12.584;2023-02-16T15:11:49;96941.56;;;15.89;41.97
52797;BME280;38666;43.348;12.584;2023-02-16T15:14:39;96948.75;;;16.29;41.37
52797;BME280;38666;43.348;12.584;2023-02-16T15:17:07;96947.84;;;15.22;44.00
52797;BME280;38666;43.348;12.584;2023-02-16T15:19:34;96938.59;;;13.80;47.88
52797;BME280;38666;43.348;12.584;2023-02-16T15:22:18;96940.56;;;15.57;43.75
52797;BME280;38666;43.348;12.584;2023-02-16T15:24:54;96935.31;;;16.77;41.44
52797;BME280;38666;43.348;12.584;2023-02-16T15:27:21;96948.72;;;15.79;43.59
52797;BME280;38666;43.348;12.584;2023-02-16T15:32:32;96940.03;;;15.02;45.11
52797;BME280;38666;43.348;12.584;2023-02-16T15:34:57;96949.16;;;14.66;46.24
52797;BME280;38666;43.348;12.584;2023-02-16T15:37:30;96940.69;;;15.32;44.91
52797;BME280;38666;43.348;12.584;2023-02-16T15:40:18;96944.72;;;15.12;45.30
52797;BME280;38666;43.348;12.584;2023-02-16T15:42:49;96948.63;;;15.19;44.79
52797;BME280;38666;43.348;12.584;2023-02-16T15:45:44;96959.38;;;14.69;45.89
52797;BME280;38666;43.348;12.584;2023-02-16T15:51:01;96953.50;;;14.27;47.72
52797;BME280;38666;43.348;12.584;2023-02-16T15:53:35;96949.94;;;14.85;47.12
52797;BME280;38666;43.348;12.584;2023-02-16T15:56:20;96958.63;;;14.32;47.58
52797;BME280;38666;43.348;12.584;2023-02-16T15:58:47;96963.22;;;13.51;49.83
52797;BME280;38666;43.348;12.584;2023-02-16T16:01:20;96960.78;;;12.49;53.35
52797;BME280;38666;43.348;12.584;2023-02-16T16:03:46;96954.44;;;12.38;54.50
52797;BME280;38666;43.348;12.584;2023-02-16T16:06:11;96966.31;;;12.57;54.11
52797;BME280;38666;43.348;12.584;2023-02-16T16:08:37;96961.06;;;13.00;53.04
52797;BME280;38666;43.348;12.584;2023-02-16T16:11:03;96959.91;;;13.05;52.35
52797;BME280;38666;43.348;12.584;2023-02-16T16:13:29;96964.88;;;12.18;55.27
52797;BME280;38666;43.348;12.584;2023-02-16T16:15:58;96954.94;;;12.02;56.50
52797;BME280;38666;43.348;12.584;2023-02-16T16:18:43;96961.97;;;12.03;56.53
52797;BME280;38666;43.348;12.584;2023-02-16T16:21:25;96958.66;;;11.83;57.51
52797;BME280;38666;43.348;12.584;2023-02-16T16:26:21;96953.81;;;11.27;59.39
52797;BME280;38666;43.348;12.584;2023-02-16T16:28:48;96955.94;;;11.10;60.03
52797;BME280;38666;43.348;12.584;2023-02-16T16:31:28;96955.53;;;11.08;60.81
52797;BME280;38666;43.348;12.584;2023-02-16T16:34:03;96959.38;;;11.03;61.04
52797;BME280;38666;43.348;12.584;2023-02-16T16:36:51;96949.97;;;11.01;61.62
52797;BME280;38666;43.348;12.584;2023-02-16T16:44:42;96962.16;;;10.76;62.70
52797;BME280;38666;43.348;12.584;2023-02-16T16:49:46;96958.66;;;10.49;63.07
52797;BME280;38666;43.348;12.584;2023-02-16T16:52:12;96971.75;;;10.39;63.58
52797;BME280;38666;43.348;12.584;2023-02-16T16:54:38;96972.44;;;10.32;63.96
52797;BME280;38666;43.348;12.584;2023-02-16T16:57:16;96980.00;;;10.19;65.05
52797;BME280;38666;43.348;12.584;2023-02-16T16:59:42;96986.63;;;10.18;65.74
52797;BME280;38666;43.348;12.584;2023-02-16T17:02:11;96978.38;;;10.15;66.09
52797;BME280;38666;43.348;12.584;2023-02-16T17:04:36;96978.34;;;10.11;65.77
52797;BME280;38666;43.348;12.584;2023-02-16T17:07:02;96976.09;;;10.17;65.59
52797;BME280;38666;43.348;12.584;2023-02-16T17:09:27;96983.91;;;10.18;65.54
52797;BME280;38666;43.348;12.584;2023-02-16T17:11:53;96982.63;;;10.12;65.94
52797;BME280;38666;43.348;12.584;2023-02-16T17:14:19;96981.88;;;10.15;65.99
52797;BME280;38666;43.348;12.584;2023-02-16T17:16:48;96987.59;;;10.06;65.98
52797;BME280;38666;43.348;12.584;2023-02-16T17:19:19;96984.75;;;10.22;65.87
52797;BME280;38666;43.348;12.584;2023-02-16T17:21:46;96982.50;;;10.05;66.32
52797;BME280;38666;43.348;12.584;2023-02-16T17:24:12;96981.66;;;10.01;66.56
52797;BME280;38666;43.348;12.584;2023-02-16T17:26:38;96978.16;;;10.00;66.29
52797;BME280;38666;43.348;12.584;2023-02-16T17:29:05;96976.09;;;9.93;67.10
52797;BME280;38666;43.348;12.584;2023-02-16T17:31:31;96972.81;;;9.84;67.66
52797;BME280;38666;43.348;12.584;2023-02-16T17:33:57;96974.38;;;9.61;68.31
52797;BME280;38666;43.348;12.584;2023-02-16T17:36:24;96978.16;;;9.57;69.23
52797;BME280;38666;43.348;12.584;2023-02-16T17:38:49;96970.63;;;9.50;69.51
52797;BME280;38666;43.348;12.584;2023-02-16T17:41:26;96979.56;;;9.47;69.74
52797;BME280;38666;43.348;12.584;2023-02-16T17:43:52;96977.78;;;9.35;70.11
52797;BME280;38666;43.348;12.584;2023-02-16T17:46:19;96978.31;;;9.24;70.93
52797;BME280;38666;43.348;12.584;2023-02-16T17:48:48;96990.09;;;9.29;70.44
52797;BME280;38666;43.348;12.584;2023-02-16T17:51:17;96990.09;;;9.29;71.10
52797;BME280;38666;43.348;12.584;2023-02-16T17:53:42;96986.31;;;9.13;71.41
52797;BME280;38666;43.348;12.584;2023-02-16T17:56:10;96984.50;;;9.21;71.83
52797;BME280;38666;43.348;12.584;2023-02-16T17:58:36;96988.38;;;9.20;71.29
52797;BME280;38666;43.348;12.584;2023-02-16T18:01:02;96989.16;;;9.21;71.94
52797;BME280;38666;43.348;12.584;2023-02-16T18:03:28;96986.78;;;9.19;72.35
52797;BME280;38666;43.348;12.584;2023-02-16T18:05:53;96992.38;;;9.26;71.81
52797;BME280;38666;43.348;12.584;2023-02-16T18:08:19;96986.78;;;9.19;72.02
52797;BME280;38666;43.348;12.584;2023-02-16T18:10:47;96993.13;;;9.23;72.04
52797;BME280;38666;43.348;12.584;2023-02-16T18:13:14;96994.53;;;9.17;72.11
52797;BME280;38666;43.348;12.584;2023-02-16T18:15:42;97008.59;;;9.19;72.58
52797;BME280;38666;43.348;12.584;2023-02-16T18:18:13;97006.00;;;9.07;72.50
52797;BME280;38666;43.348;12.584;2023-02-16T18:20:39;97007.91;;;9.22;72.03
52797;BME280;38666;43.348;12.584;2023-02-16T18:23:05;97013.91;;;9.12;72.21
52797;BME280;38666;43.348;12.584;2023-02-16T18:25:31;97008.66;;;9.03;73.11
52797;BME280;38666;43.348;12.584;2023-02-16T18:27:56;97009.81;;;9.02;73.50
52797;BME280;38666;43.348;12.584;2023-02-16T18:30:22;97013.75;;;9.05;73.03
52797;BME280;38666;43.348;12.584;2023-02-16T18:32:48;97014.47;;;9.01;72.40
52797;BME280;38666;43.348;12.584;2023-02-16T18:35:15;97018.03;;;8.86;73.48
52797;BME280;38666;43.348;12.584;2023-02-16T18:37:41;97019.69;;;8.90;74.12
52797;BME280;38666;43.348;12.584;2023-02-16T18:40:09;97019.59;;;8.87;73.36
52797;BME280;38666;43.348;12.584;2023-02-16T18:42:35;97016.97;;;8.74;74.18
52797;BME280;38666;43.348;12.584;2023-02-16T18:45:01;97018.34;;;8.64;74.81
52797;BME280;38666;43.348;12.584;2023-02-16T18:47:26;97016.84;;;8.67;75.01
52797;BME280;38666;43.348;12.584;2023-02-16T18:49:52;97014.53;;;8.69;75.54
